sensor_id;sensor_type;location;lat;lon;timestamp;pressure;altitude;pressure_sealevel;temperature;humidity
78168;BME280;67410;42.698;23.378;2024-02-28T00:01:18;95936.75;;;6.68;75.30
78168;BME280;67410;42.698;23.378;2024-02-28T00:03:45;95937.63;;;6.61;75.36
78168;BME280;67410;42.698;23.378;2024-02-28T00:06:11;95942.63;;;6.56;75.09
78168;BME280;67410;42.698;23.378;2024-02-28T00:08:37;95940.25;;;6.46;76.35
78168;BME280;67410;42.698;23.378;2024-02-28T00:11:03;95947.66;;;6.42;76.38
78168;BME280;67410;42.698;23.378;2024-02-28T00:13:29;95951.25;;;6.41;77.41
78168;BME280;67410;42.698;23.378;2024-02-28T00:15:55;95949.81;;;6.39;77.54
78168;BME280;67410;42.698;23.378;2024-02-28T00:18:21;95945.56;;;6.38;77.48
78168;BME280;67410;42.698;23.378;2024-02-28T00:20:47;95941.78;;;6.26;77.39
78168;BME280;67410;42.698;23.378;2024-02-28T00:23:13;95949.81;;;6.24;77.74
78168;BME280;67410;42.698;23.378;2024-02-28T00:25:39;95941.03;;;6.17;77.71
78168;BME280;67410;42.698;23.378;2024-02-28T00:28:06;95942.25;;;6.06;77.45
78168;BME280;67410;42.698;23.378;2024-02-28T00:30:32;95946.75;;;5.98;78.71
78168;BME280;67410;42.698;23.378;2024-02-28T00:33:00;95951.44;;;6.02;79.61
78168;BME280;67410;42.698;23.378;2024-02-28T00:35:26;95947.47;;;6.06;80.97
78168;BME280;67410;42.698;23.378;2024-02-28T00:37:52;95940.56;;;6.14;80.54
78168;BME280;67410;42.698;23.378;2024-02-28T00:40:18;95938.78;;;6.14;79.17
78168;BME280;67410;42.698;23.378;2024-02-28T00:42:44;95945.16;;;6.11;78.68
78168;BME280;67410;42.698;23.378;2024-02-28T00:45:11;95935.22;;;6.07;78.75
78168;BME280;67410;42.698;23.378;2024-02-28T00:47:37;95932.16;;;6.03;78.94
78168;BME280;67410;42.698;23.378;2024-02-28T00:50:05;95942.19;;;6.00;78.31
78168;BME280;67410;42.698;23.378;2024-02-28T00:52:31;95939.63;;;5.92;79.60
78168;BME280;67410;42.698;23.378;2024-02-28T00:54:58;95943.22;;;5.91;79.77
78168;BME280;67410;42.698;23.378;2024-02-28T00:57:24;95943.53;;;5.88;79.72
78168;BME280;67410;42.698;23.378;2024-02-28T00:59:50;95941.91;;;5.87;78.76
78168;BME280;67410;42.698;23.378;2024-02-28T01:02:16;95940.81;;;5.81;79.42
78168;BME280;67410;42.698;23.378;2024-02-28T01:04:42;95947.03;;;5.80;79.15
78168;BME280;67410;42.698;23.378;2024-02-28T01:07:09;95944.13;;;5.75;80.25
78168;BME280;67410;42.698;23.378;2024-02-28T01:09:35;95955.84;;;5.79;79.98
78168;BME280;67410;42.698;23.378;2024-02-28T01:12:01;95967.63;;;5.75;81.69
78168;BME280;67410;42.698;23.378;2024-02-28T01:14:27;95951.38;;;5.65;82.29
78168;BME280;67410;42.698;23.378;2024-02-28T01:16:53;95948.66;;;5.58;83.29
78168;BME280;67410;42.698;23.378;2024-02-28T01:19:19;95954.50;;;5.60;83.07
78168;BME280;67410;42.698;23.378;2024-02-28T01:21:45;95946.09;;;5.50;84.06
78168;BME280;67410;42.698;23.378;2024-02-28T01:24:11;95955.38;;;5.53;85.01
78168;BME280;67410;42.698;23.378;2024-02-28T01:26:38;95952.25;;;5.57;85.03
78168;BME280;67410;42.698;23.378;2024-02-28T01:29:04;95960.44;;;5.54;84.30
78168;BME280;67410;42.698;23.378;2024-02-28T01:31:30;95966.59;;;5.61;84.35
78168;BME280;67410;42.698;23.378;2024-02-28T01:33:56;95961.88;;;5.57;83.55
78168;BME280;67410;42.698;23.378;2024-02-28T01:36:23;95961.38;;;5.61;83.72
78168;BME280;67410;42.698;23.378;2024-02-28T01:38:49;95955.97;;;5.63;82.72
78168;BME280;67410;42.698;23.378;2024-02-28T01:41:15;95963.50;;;5.58;82.71
78168;BME280;67410;42.698;23.378;2024-02-28T01:43:41;95970.19;;;5.60;83.13
78168;BME280;67410;42.698;23.378;2024-02-28T01:46:21;95975.06;;;5.63;81.95
78168;BME280;67410;42.698;23.378;2024-02-28T01:48:49;95972.47;;;5.63;81.49
78168;BME280;67410;42.698;23.378;2024-02-28T01:51:16;95969.03;;;5.63;81.62
78168;BME280;67410;42.698;23.378;2024-02-28T01:53:42;95963.81;;;5.63;82.15
78168;BME280;67410;42.698;23.378;2024-02-28T01:56:08;95973.91;;;5.66;80.92
78168;BME280;67410;42.698;23.378;2024-02-28T01:58:34;95971.84;;;5.53;80.68
78168;BME280;67410;42.698;23.378;2024-02-28T02:01:01;95972.59;;;5.39;81.79
78168;BME280;67410;42.698;23.378;2024-02-28T02:03:29;95982.06;;;5.40;81.48
78168;BME280;67410;42.698;23.378;2024-02-28T02:05:55;95977.03;;;5.38;81.55
78168;BME280;67410;42.698;23.378;2024-02-28T02:08:22;95979.28;;;5.41;83.53
78168;BME280;67410;42.698;23.378;2024-02-28T02:10:49;95975.88;;;5.41;82.19
78168;BME280;67410;42.698;23.378;2024-02-28T02:13:15;95969.34;;;5.37;80.98
78168;BME280;67410;42.698;23.378;2024-02-28T02:15:41;95972.66;;;5.31;83.53
78168;BME280;67410;42.698;23.378;2024-02-28T02:18:07;95975.25;;;5.31;84.38
78168;BME280;67410;42.698;23.378;2024-02-28T02:20:35;95972.16;;;5.27;83.71
78168;BME280;67410;42.698;23.378;2024-02-28T02:23:04;95972.84;;;5.21;85.60
78168;BME280;67410;42.698;23.378;2024-02-28T02:25:31;95972.41;;;5.18;86.23
78168;BME280;67410;42.698;23.378;2024-02-28T02:27:57;95966.00;;;5.20;86.80
78168;BME280;67410;42.698;23.378;2024-02-28T02:30:23;95964.03;;;5.22;87.38
78168;BME280;67410;42.698;23.378;2024-02-28T02:32:49;95970.38;;;5.28;86.42
78168;BME280;67410;42.698;23.378;2024-02-28T02:35:15;95967.63;;;5.21;87.20
78168;BME280;67410;42.698;23.378;2024-02-28T02:37:45;95971.94;;;5.14;87.39
78168;BME280;67410;42.698;23.378;2024-02-28T02:40:15;95969.16;;;5.16;87.44
78168;BME280;67410;42.698;23.378;2024-02-28T02:42:41;95965.06;;;5.13;87.82
78168;BME280;67410;42.698;23.378;2024-02-28T02:45:07;95972.84;;;5.21;86.94
78168;BME280;67410;42.698;23.378;2024-02-28T02:47:33;95970.84;;;5.31;85.46
78168;BME280;67410;42.698;23.378;2024-02-28T02:49:59;95973.13;;;5.34;86.25
78168;BME280;67410;42.698;23.378;2024-02-28T02:52:25;95979.31;;;5.33;86.01
78168;BME280;67410;42.698;23.378;2024-02-28T02:54:52;95977.88;;;5.31;86.27
78168;BME280;67410;42.698;23.378;2024-02-28T02:57:18;95974.44;;;5.30;86.72
78168;BME280;67410;42.698;23.378;2024-02-28T02:59:44;95976.72;;;5.33;86.85
78168;BME280;67410;42.698;23.378;2024-02-28T03:02:10;95977.72;;;5.24;87.08
78168;BME280;67410;42.698;23.378;2024-02-28T03:04:36;95978.50;;;5.33;87.08
78168;BME280;67410;42.698;23.378;2024-02-28T03:07:02;95978.34;;;5.34;86.21
78168;BME280;67410;42.698;23.378;2024-02-28T03:09:28;95975.41;;;5.37;86.36
78168;BME280;67410;42.698;23.378;2024-02-28T03:11:54;95974.91;;;5.34;86.60
78168;BME280;67410;42.698;23.378;2024-02-28T03:14:20;95977.34;;;5.35;87.54
78168;BME280;67410;42.698;23.378;2024-02-28T03:16:48;95973.59;;;5.38;87.04
78168;BME280;67410;42.698;23.378;2024-02-28T03:19:15;95976.53;;;5.35;84.88
78168;BME280;67410;42.698;23.378;2024-02-28T03:21:41;95977.19;;;5.37;84.95
78168;BME280;67410;42.698;23.378;2024-02-28T03:24:07;95970.00;;;5.39;86.75
78168;BME280;67410;42.698;23.378;2024-02-28T03:26:33;95980.28;;;5.40;85.87
78168;BME280;67410;42.698;23.378;2024-02-28T03:28:59;95986.63;;;5.46;86.48
78168;BME280;67410;42.698;23.378;2024-02-28T03:31:26;95974.53;;;5.45;86.23
78168;BME280;67410;42.698;23.378;2024-02-28T03:33:52;95986.13;;;5.42;85.49
78168;BME280;67410;42.698;23.378;2024-02-28T03:36:18;95992.22;;;5.35;85.95
78168;BME280;67410;42.698;23.378;2024-02-28T03:38:44;95983.72;;;5.33;87.71
78168;BME280;67410;42.698;23.378;2024-02-28T03:41:10;95987.50;;;5.30;86.78
78168;BME280;67410;42.698;23.378;2024-02-28T03:43:36;95999.22;;;5.34;86.32
78168;BME280;67410;42.698;23.378;2024-02-28T03:46:02;96001.03;;;5.34;85.18
78168;BME280;67410;42.698;23.378;2024-02-28T03:48:28;95990.78;;;5.24;84.58
78168;BME280;67410;42.698;23.378;2024-02-28T03:50:56;95995.03;;;5.25;85.34
78168;BME280;67410;42.698;23.378;2024-02-28T03:53:22;95997.97;;;5.22;85.57
78168;BME280;67410;42.698;23.378;2024-02-28T03:55:48;95993.72;;;5.21;85.23
78168;BME280;67410;42.698;23.378;2024-02-28T03:58:14;96001.94;;;5.18;83.68
78168;BME280;67410;42.698;23.378;2024-02-28T04:00:40;96001.63;;;5.13;85.01
78168;BME280;67410;42.698;23.378;2024-02-28T04:03:06;95994.13;;;5.10;85.65
78168;BME280;67410;42.698;23.378;2024-02-28T04:05:32;95998.06;;;5.06;84.96
78168;BME280;67410;42.698;23.378;2024-02-28T04:07:58;95997.25;;;5.05;85.04
78168;BME280;67410;42.698;23.378;2024-02-28T04:10:24;95991.28;;;4.89;84.13
78168;BME280;67410;42.698;23.378;2024-02-28T04:12:50;95990.16;;;4.83;84.17
78168;BME280;67410;42.698;23.378;2024-02-28T04:15:16;95991.28;;;4.81;83.83
78168;BME280;67410;42.698;23.378;2024-02-28T04:17:42;95991.47;;;4.79;83.68
78168;BME280;67410;42.698;23.378;2024-02-28T04:20:12;95993.91;;;4.72;84.44
78168;BME280;67410;42.698;23.378;2024-02-28T04:22:39;95988.22;;;4.69;85.36
78168;BME280;67410;42.698;23.378;2024-02-28T04:25:06;95987.56;;;4.67;85.70
78168;BME280;67410;42.698;23.378;2024-02-28T04:27:34;95988.09;;;4.62;86.93
78168;BME280;67410;42.698;23.378;2024-02-28T04:30:00;95988.09;;;4.62;87.72
78168;BME280;67410;42.698;23.378;2024-02-28T04:32:27;95990.16;;;4.75;91.17
78168;BME280;67410;42.698;23.378;2024-02-28T04:34:53;95988.69;;;4.81;90.80
78168;BME280;67410;42.698;23.378;2024-02-28T04:37:19;95989.31;;;4.91;90.41
78168;BME280;67410;42.698;23.378;2024-02-28T04:39:45;95997.97;;;4.91;90.46
78168;BME280;67410;42.698;23.378;2024-02-28T04:42:12;95992.38;;;4.94;90.51
78168;BME280;67410;42.698;23.378;2024-02-28T04:44:38;95998.56;;;4.93;90.31
78168;BME280;67410;42.698;23.378;2024-02-28T04:47:04;95992.03;;;4.97;90.38
78168;BME280;67410;42.698;23.378;2024-02-28T04:49:30;95995.97;;;4.93;90.46
78168;BME280;67410;42.698;23.378;2024-02-28T04:51:56;96001.66;;;5.05;90.56
78168;BME280;67410;42.698;23.378;2024-02-28T04:54:23;95998.22;;;5.04;90.01
78168;BME280;67410;42.698;23.378;2024-02-28T04:56:49;96000.97;;;5.11;90.35
78168;BME280;67410;42.698;23.378;2024-02-28T04:59:17;95999.34;;;5.10;90.24
78168;BME280;67410;42.698;23.378;2024-02-28T05:01:43;96001.56;;;5.21;89.73
78168;BME280;67410;42.698;23.378;2024-02-28T05:04:11;96005.16;;;5.20;90.00
78168;BME280;67410;42.698;23.378;2024-02-28T05:06:37;96008.94;;;5.18;90.25
78168;BME280;67410;42.698;23.378;2024-02-28T05:09:03;96009.38;;;5.21;89.77
78168;BME280;67410;42.698;23.378;2024-02-28T05:11:30;96011.47;;;5.34;90.74
78168;BME280;67410;42.698;23.378;2024-02-28T05:13:56;96007.06;;;5.34;90.42
78168;BME280;67410;42.698;23.378;2024-02-28T05:16:22;96008.81;;;5.42;89.66
78168;BME280;67410;42.698;23.378;2024-02-28T05:18:48;96018.56;;;5.48;89.89
78168;BME280;67410;42.698;23.378;2024-02-28T05:21:14;96020.63;;;5.61;88.29
78168;BME280;67410;42.698;23.378;2024-02-28T05:23:40;96021.75;;;5.66;87.34
78168;BME280;67410;42.698;23.378;2024-02-28T05:26:07;96034.47;;;5.69;87.29
78168;BME280;67410;42.698;23.378;2024-02-28T05:28:33;96037.00;;;5.77;86.71
78168;BME280;67410;42.698;23.378;2024-02-28T05:33:46;96043.16;;;5.93;86.87
78168;BME280;67410;42.698;23.378;2024-02-28T05:36:12;96049.69;;;5.97;86.79
78168;BME280;67410;42.698;23.378;2024-02-28T05:38:38;96046.28;;;5.88;86.70
78168;BME280;67410;42.698;23.378;2024-02-28T05:41:04;96050.84;;;5.86;87.32
78168;BME280;67410;42.698;23.378;2024-02-28T05:43:30;96050.69;;;5.88;86.50
78168;BME280;67410;42.698;23.378;2024-02-28T05:45:56;96056.59;;;5.90;86.91
78168;BME280;67410;42.698;23.378;2024-02-28T05:48:22;96061.00;;;6.12;85.90
78168;BME280;67410;42.698;23.378;2024-02-28T05:50:48;96071.06;;;6.61;84.37
78168;BME280;67410;42.698;23.378;2024-02-28T05:53:15;96062.91;;;6.93;81.96
78168;BME280;67410;42.698;23.378;2024-02-28T05:55:41;96070.16;;;7.35;79.99
78168;BME280;67410;42.698;23.378;2024-02-28T05:58:07;96071.63;;;7.74;78.25
78168;BME280;67410;42.698;23.378;2024-02-28T06:00:34;96082.34;;;7.94;76.97
78168;BME280;67410;42.698;23.378;2024-02-28T06:03:00;96075.50;;;7.93;76.94
78168;BME280;67410;42.698;23.378;2024-02-28T06:05:26;96079.03;;;7.85;76.42
78168;BME280;67410;42.698;23.378;2024-02-28T06:07:52;96078.63;;;8.03;75.84
78168;BME280;67410;42.698;23.378;2024-02-28T06:10:19;96068.41;;;8.51;74.89
78168;BME280;67410;42.698;23.378;2024-02-28T06:12:46;96073.31;;;9.44;70.81
78168;BME280;67410;42.698;23.378;2024-02-28T06:15:12;96077.22;;;10.02;69.08
78168;BME280;67410;42.698;23.378;2024-02-28T06:17:39;96077.22;;;10.02;68.41
78168;BME280;67410;42.698;23.378;2024-02-28T06:20:05;96089.91;;;10.79;65.89
78168;BME280;67410;42.698;23.378;2024-02-28T06:22:32;96085.84;;;10.57;66.75
78168;BME280;67410;42.698;23.378;2024-02-28T06:24:58;96091.94;;;11.04;66.13
78168;BME280;67410;42.698;23.378;2024-02-28T06:27:24;96090.59;;;11.66;64.28
78168;BME280;67410;42.698;23.378;2024-02-28T06:29:52;96086.19;;;12.11;62.54
78168;BME280;67410;42.698;23.378;2024-02-28T06:32:18;96082.56;;;12.43;61.78
78168;BME280;67410;42.698;23.378;2024-02-28T06:34:44;96076.88;;;12.71;60.48
78168;BME280;67410;42.698;23.378;2024-02-28T06:37:11;96089.81;;;12.16;61.51
78168;BME280;67410;42.698;23.378;2024-02-28T06:39:37;96092.91;;;13.01;60.43
78168;BME280;67410;42.698;23.378;2024-02-28T06:42:03;96090.69;;;12.98;59.49
78168;BME280;67410;42.698;23.378;2024-02-28T06:44:29;96090.50;;;12.68;59.82
78168;BME280;67410;42.698;23.378;2024-02-28T06:46:55;96091.78;;;12.59;60.53
78168;BME280;67410;42.698;23.378;2024-02-28T06:49:21;96088.16;;;13.10;60.52
78168;BME280;67410;42.698;23.378;2024-02-28T06:51:48;96089.03;;;12.79;59.76
78168;BME280;67410;42.698;23.378;2024-02-28T06:54:14;96093.50;;;13.03;59.39
78168;BME280;67410;42.698;23.378;2024-02-28T06:56:40;96091.03;;;13.51;58.86
78168;BME280;67410;42.698;23.378;2024-02-28T06:59:07;96088.84;;;13.67;58.79
78168;BME280;67410;42.698;23.378;2024-02-28T07:01:33;96094.69;;;13.07;58.95
78168;BME280;67410;42.698;23.378;2024-02-28T07:03:59;96091.28;;;12.75;60.09
78168;BME280;67410;42.698;23.378;2024-02-28T07:06:25;96090.56;;;12.62;61.06
78168;BME280;67410;42.698;23.378;2024-02-28T07:08:51;96086.41;;;12.72;60.92
78168;BME280;67410;42.698;23.378;2024-02-28T07:11:17;96088.03;;;12.98;60.73
78168;BME280;67410;42.698;23.378;2024-02-28T07:13:43;96095.06;;;13.11;59.55
78168;BME280;67410;42.698;23.378;2024-02-28T07:16:09;96089.88;;;14.32;57.75
78168;BME280;67410;42.698;23.378;2024-02-28T07:18:35;96094.25;;;15.21;54.54
78168;BME280;67410;42.698;23.378;2024-02-28T07:21:01;96083.31;;;15.30;54.51
78168;BME280;67410;42.698;23.378;2024-02-28T07:23:27;96092.66;;;15.20;53.40
78168;BME280;67410;42.698;23.378;2024-02-28T07:25:54;96086.06;;;15.00;53.95
78168;BME280;67410;42.698;23.378;2024-02-28T07:28:20;96086.41;;;15.62;53.35
78168;BME280;67410;42.698;23.378;2024-02-28T07:30:46;96090.00;;;15.55;53.04
78168;BME280;67410;42.698;23.378;2024-02-28T07:33:13;96098.66;;;15.51;54.09
78168;BME280;67410;42.698;23.378;2024-02-28T07:35:47;96099.69;;;14.13;56.56
78168;BME280;67410;42.698;23.378;2024-02-28T07:38:13;96095.28;;;14.07;57.67
78168;BME280;67410;42.698;23.378;2024-02-28T07:40:39;96095.53;;;13.87;56.99
78168;BME280;67410;42.698;23.378;2024-02-28T07:43:05;96093.16;;;14.16;57.52
78168;BME280;67410;42.698;23.378;2024-02-28T07:45:31;96092.34;;;14.15;57.27
78168;BME280;67410;42.698;23.378;2024-02-28T07:47:57;96088.59;;;15.53;52.42
78168;BME280;67410;42.698;23.378;2024-02-28T07:50:23;96089.38;;;16.57;49.57
78168;BME280;67410;42.698;23.378;2024-02-28T07:52:50;96094.25;;;16.48;48.48
78168;BME280;67410;42.698;23.378;2024-02-28T07:55:16;96085.81;;;16.80;48.70
78168;BME280;67410;42.698;23.378;2024-02-28T07:57:42;96085.75;;;17.80;45.56
78168;BME280;67410;42.698;23.378;2024-02-28T08:00:12;96098.13;;;18.30;44.60
78168;BME280;67410;42.698;23.378;2024-02-28T08:02:38;96085.47;;;17.77;47.10
78168;BME280;67410;42.698;23.378;2024-02-28T08:05:05;96091.00;;;18.63;43.63
78168;BME280;67410;42.698;23.378;2024-02-28T08:07:33;96093.66;;;18.89;42.78
78168;BME280;67410;42.698;23.378;2024-02-28T08:09:59;96093.41;;;18.64;45.04
78168;BME280;67410;42.698;23.378;2024-02-28T08:12:26;96084.91;;;18.67;44.54
78168;BME280;67410;42.698;23.378;2024-02-28T08:14:52;96086.75;;;17.57;46.51
78168;BME280;67410;42.698;23.378;2024-02-28T08:17:18;96087.56;;;17.75;45.59
78168;BME280;67410;42.698;23.378;2024-02-28T08:19:44;96079.78;;;17.18;47.41
78168;BME280;67410;42.698;23.378;2024-02-28T08:22:11;96078.91;;;16.96;46.64
78168;BME280;67410;42.698;23.378;2024-02-28T08:24:38;96084.78;;;16.24;48.88
78168;BME280;67410;42.698;23.378;2024-02-28T08:27:05;96080.06;;;16.71;47.49
78168;BME280;67410;42.698;23.378;2024-02-28T08:29:31;96089.78;;;16.94;47.29
78168;BME280;67410;42.698;23.378;2024-02-28T08:31:58;96082.31;;;16.34;48.10
78168;BME280;67410;42.698;23.378;2024-02-28T08:34:24;96089.28;;;15.83;49.92
78168;BME280;67410;42.698;23.378;2024-02-28T08:36:50;96080.28;;;15.84;50.39
78168;BME280;67410;42.698;23.378;2024-02-28T08:39:17;96080.00;;;15.98;49.91
78168;BME280;67410;42.698;23.378;2024-02-28T08:41:44;96080.13;;;16.03;50.17
78168;BME280;67410;42.698;23.378;2024-02-28T08:44:10;96080.78;;;16.10;50.61
78168;BME280;67410;42.698;23.378;2024-02-28T08:46:36;96069.19;;;16.16;49.49
78168;BME280;67410;42.698;23.378;2024-02-28T08:49:03;96065.69;;;15.59;49.91
78168;BME280;67410;42.698;23.378;2024-02-28T08:51:29;96070.25;;;15.63;50.61
78168;BME280;67410;42.698;23.378;2024-02-28T08:53:55;96070.38;;;15.80;50.53
78168;BME280;67410;42.698;23.378;2024-02-28T08:56:21;96064.94;;;15.75;50.32
78168;BME280;67410;42.698;23.378;2024-02-28T08:58:47;96060.81;;;16.64;49.57
78168;BME280;67410;42.698;23.378;2024-02-28T09:01:14;96060.28;;;16.79;47.83
78168;BME280;67410;42.698;23.378;2024-02-28T09:03:42;96060.19;;;16.74;48.10
78168;BME280;67410;42.698;23.378;2024-02-28T09:06:08;96063.72;;;16.79;48.80
78168;BME280;67410;42.698;23.378;2024-02-28T09:08:34;96049.03;;;17.27;47.89
78168;BME280;67410;42.698;23.378;2024-02-28T09:11:00;96050.13;;;16.92;47.96
78168;BME280;67410;42.698;23.378;2024-02-28T09:13:27;96056.41;;;16.86;48.30
78168;BME280;67410;42.698;23.378;2024-02-28T09:15:53;96056.16;;;17.05;47.92
78168;BME280;67410;42.698;23.378;2024-02-28T09:18:19;96050.63;;;16.89;48.91
78168;BME280;67410;42.698;23.378;2024-02-28T09:20:46;96053.03;;;17.08;48.10
78168;BME280;67410;42.698;23.378;2024-02-28T09:23:12;96066.09;;;18.03;46.05
78168;BME280;67410;42.698;23.378;2024-02-28T09:25:40;96064.38;;;18.19;45.44
78168;BME280;67410;42.698;23.378;2024-02-28T09:28:06;96065.81;;;17.83;45.31
78168;BME280;67410;42.698;23.378;2024-02-28T09:30:32;96056.72;;;18.01;44.95
78168;BME280;67410;42.698;23.378;2024-02-28T09:32:58;96055.13;;;17.61;45.33
78168;BME280;67410;42.698;23.378;2024-02-28T09:35:24;96051.38;;;17.79;45.67
78168;BME280;67410;42.698;23.378;2024-02-28T09:37:50;96046.91;;;18.28;44.37
78168;BME280;67410;42.698;23.378;2024-02-28T09:40:16;96039.72;;;18.34;42.57
78168;BME280;67410;42.698;23.378;2024-02-28T09:42:47;96044.53;;;18.58;42.95
78168;BME280;67410;42.698;23.378;2024-02-28T09:45:16;96038.50;;;19.00;44.60
78168;BME280;67410;42.698;23.378;2024-02-28T09:47:43;96035.34;;;19.92;41.63
78168;BME280;67410;42.698;23.378;2024-02-28T09:50:09;96028.34;;;20.74;39.39
78168;BME280;67410;42.698;23.378;2024-02-28T09:52:36;96024.13;;;19.48;40.69
78168;BME280;67410;42.698;23.378;2024-02-28T09:55:02;96023.63;;;17.97;42.50
78168;BME280;67410;42.698;23.378;2024-02-28T09:57:29;96017.72;;;18.16;43.64
78168;BME280;67410;42.698;23.378;2024-02-28T09:59:57;96016.78;;;18.06;43.94
78168;BME280;67410;42.698;23.378;2024-02-28T10:02:25;96015.00;;;18.97;42.20
78168;BME280;67410;42.698;23.378;2024-02-28T10:04:52;96016.00;;;18.05;43.03
78168;BME280;67410;42.698;23.378;2024-02-28T10:07:18;96012.69;;;17.54;43.83
78168;BME280;67410;42.698;23.378;2024-02-28T10:09:45;96006.53;;;16.94;45.28
78168;BME280;67410;42.698;23.378;2024-02-28T10:12:12;96011.47;;;17.23;44.27
78168;BME280;67410;42.698;23.378;2024-02-28T10:14:38;96005.25;;;16.51;47.15
78168;BME280;67410;42.698;23.378;2024-02-28T10:17:05;96012.88;;;16.31;47.00
78168;BME280;67410;42.698;23.378;2024-02-28T10:19:31;96010.28;;;15.90;46.78
78168;BME280;67410;42.698;23.378;2024-02-28T10:21:58;96010.72;;;15.47;48.92
78168;BME280;67410;42.698;23.378;2024-02-28T10:24:24;96007.94;;;15.66;48.44
78168;BME280;67410;42.698;23.378;2024-02-28T10:26:50;96001.47;;;15.50;48.85
78168;BME280;67410;42.698;23.378;2024-02-28T10:29:23;95992.22;;;15.64;48.52
78168;BME280;67410;42.698;23.378;2024-02-28T10:31:55;95986.22;;;15.69;48.86
78168;BME280;67410;42.698;23.378;2024-02-28T10:34:21;95988.41;;;15.72;48.60
78168;BME280;67410;42.698;23.378;2024-02-28T10:36:49;95987.88;;;15.58;47.96
78168;BME280;67410;42.698;23.378;2024-02-28T10:39:15;95981.94;;;15.79;47.75
78168;BME280;67410;42.698;23.378;2024-02-28T10:41:42;95975.38;;;15.99;47.74
78168;BME280;67410;42.698;23.378;2024-02-28T10:44:09;95977.22;;;16.43;46.63
78168;BME280;67410;42.698;23.378;2024-02-28T10:46:38;95962.09;;;16.94;46.41
78168;BME280;67410;42.698;23.378;2024-02-28T10:49:05;95956.59;;;17.39;44.74
78168;BME280;67410;42.698;23.378;2024-02-28T10:51:35;95969.34;;;18.35;43.18
78168;BME280;67410;42.698;23.378;2024-02-28T10:54:12;95964.22;;;19.29;42.01
78168;BME280;67410;42.698;23.378;2024-02-28T10:56:39;95966.69;;;19.41;40.45
78168;BME280;67410;42.698;23.378;2024-02-28T10:59:08;95955.44;;;19.96;39.47
78168;BME280;67410;42.698;23.378;2024-02-28T11:01:36;95951.16;;;20.05;38.81
78168;BME280;67410;42.698;23.378;2024-02-28T11:04:03;95957.63;;;19.42;39.43
78168;BME280;67410;42.698;23.378;2024-02-28T11:06:30;95951.19;;;20.31;39.07
78168;BME280;67410;42.698;23.378;2024-02-28T11:08:59;95947.25;;;20.43;39.00
78168;BME280;67410;42.698;23.378;2024-02-28T11:11:32;95951.63;;;19.77;39.38
78168;BME280;67410;42.698;23.378;2024-02-28T11:13:59;95938.03;;;19.83;40.55
78168;BME280;67410;42.698;23.378;2024-02-28T11:16:37;95953.31;;;19.36;40.07
78168;BME280;67410;42.698;23.378;2024-02-28T11:19:03;95924.16;;;19.97;39.31
78168;BME280;67410;42.698;23.378;2024-02-28T11:21:29;95931.56;;;19.69;39.59
78168;BME280;67410;42.698;23.378;2024-02-28T11:23:59;95928.72;;;20.26;38.81
78168;BME280;67410;42.698;23.378;2024-02-28T11:26:26;95921.78;;;20.15;39.07
78168;BME280;67410;42.698;23.378;2024-02-28T11:28:57;95926.31;;;20.25;38.84
78168;BME280;67410;42.698;23.378;2024-02-28T11:31:23;95924.72;;;20.34;38.60
78168;BME280;67410;42.698;23.378;2024-02-28T11:33:49;95919.63;;;20.12;38.52
78168;BME280;67410;42.698;23.378;2024-02-28T11:36:16;95912.75;;;20.42;37.84
78168;BME280;67410;42.698;23.378;2024-02-28T11:38:42;95911.09;;;20.86;37.28
78168;BME280;67410;42.698;23.378;2024-02-28T11:41:08;95910.31;;;20.66;37.80
78168;BME280;67410;42.698;23.378;2024-02-28T11:43:34;95910.00;;;20.11;38.12
78168;BME280;67410;42.698;23.378;2024-02-28T11:46:01;95907.88;;;20.08;37.90
78168;BME280;67410;42.698;23.378;2024-02-28T11:48:28;95890.25;;;20.38;37.68
78168;BME280;67410;42.698;23.378;2024-02-28T11:50:54;95895.81;;;21.02;36.64
78168;BME280;67410;42.698;23.378;2024-02-28T11:53:20;95896.56;;;21.13;37.47
78168;BME280;67410;42.698;23.378;2024-02-28T11:55:46;95893.53;;;21.50;35.60
78168;BME280;67410;42.698;23.378;2024-02-28T11:58:13;95888.25;;;21.14;36.09
78168;BME280;67410;42.698;23.378;2024-02-28T12:00:50;95887.91;;;21.41;36.69
78168;BME280;67410;42.698;23.378;2024-02-28T12:03:23;95893.53;;;21.50;35.96
78168;BME280;67410;42.698;23.378;2024-02-28T12:05:51;95892.84;;;21.78;35.23
78168;BME280;67410;42.698;23.378;2024-02-28T12:08:18;95886.81;;;21.47;36.67
78168;BME280;67410;42.698;23.378;2024-02-28T12:10:46;95878.50;;;21.98;35.05
78168;BME280;67410;42.698;23.378;2024-02-28T12:13:17;95875.00;;;22.42;34.62
78168;BME280;67410;42.698;23.378;2024-02-28T12:15:45;95875.78;;;22.08;34.86
78168;BME280;67410;42.698;23.378;2024-02-28T12:18:14;95861.91;;;21.47;34.35
78168;BME280;67410;42.698;23.378;2024-02-28T12:20:41;95872.56;;;20.32;37.12
78168;BME280;67410;42.698;23.378;2024-02-28T12:23:07;95869.09;;;20.31;36.46
78168;BME280;67410;42.698;23.378;2024-02-28T12:25:34;95856.25;;;19.87;37.91
78168;BME280;67410;42.698;23.378;2024-02-28T12:28:00;95853.84;;;19.91;37.71
78168;BME280;67410;42.698;23.378;2024-02-28T12:30:27;95857.06;;;20.54;38.45
78168;BME280;67410;42.698;23.378;2024-02-28T12:32:53;95861.88;;;20.77;36.29
78168;BME280;67410;42.698;23.378;2024-02-28T12:35:19;95853.03;;;20.77;36.15
78168;BME280;67410;42.698;23.378;2024-02-28T12:37:46;95855.22;;;20.39;37.89
78168;BME280;67410;42.698;23.378;2024-02-28T12:40:16;95846.34;;;20.69;36.41
78168;BME280;67410;42.698;23.378;2024-02-28T12:42:42;95849.28;;;20.78;36.08
78168;BME280;67410;42.698;23.378;2024-02-28T12:45:08;95844.47;;;19.83;37.40
78168;BME280;67410;42.698;23.378;2024-02-28T12:47:35;95843.00;;;19.35;38.91
78168;BME280;67410;42.698;23.378;2024-02-28T12:50:01;95844.72;;;19.67;37.70
78168;BME280;67410;42.698;23.378;2024-02-28T12:52:27;95840.19;;;19.77;38.87
78168;BME280;67410;42.698;23.378;2024-02-28T12:54:53;95847.97;;;20.75;36.36